Time;durP1;ratioP1;P1;durP2;ratioP2;P2;SDS_P1;SDS_P2;PMS_P1;PMS_P2;Temp;Humidity;BMP_temperature;BMP_pressure;BME280_temperature;BME280_humidity;BME280_pressure;Samples;Min_cycle;Max_cycle;Signal;HPM_P1;HPM_P2
2021/10/13 00:00:25;;;;;;;6.87;2.30;;;6.90;99.90;;;;;;6666148;89;20260;-77
2021/10/13 00:10:25;;;;;;;10.25;3.15;;;6.90;99.90;;;;;;6664831;89;20220;-77
2021/10/13 00:20:26;;;;;;;11.30;3.00;;;6.80;99.90;;;;;;6678824;88;21015;-76
2021/10/13 00:30:27;;;;;;;13.00;3.30;;;6.60;99.90;;;;;;6673379;89;20572;-78
2021/10/13 00:40:29;;;;;;;10.07;3.62;;;6.60;99.90;;;;;;6674218;88;20178;-77
2021/10/13 00:50:30;;;;;;;9.52;3.72;;;6.60;99.90;;;;;;6663787;88;20630;-77
2021/10/13 01:00:31;;;;;;;9.15;3.90;;;6.80;99.90;;;;;;6664281;89;20195;-76
2021/10/13 01:10:56;;;;;;;8.90;3.45;;;7.00;99.90;;;;;;6663850;89;20674;-77
2021/10/13 01:21:13;;;;;;;12.18;3.90;;;7.20;99.90;;;;;;6664012;89;20573;-77
2021/10/13 01:31:27;;;;;;;9.48;4.25;;;7.10;99.90;;;;;;6663383;88;21179;-77
2021/10/13 01:41:28;;;;;;;8.50;3.62;;;6.80;99.90;;;;;;6664357;88;20195;-76
2021/10/13 01:51:30;;;;;;;8.35;3.70;;;6.70;99.90;;;;;;6663594;89;20187;-77
2021/10/13 02:01:32;;;;;;;9.00;3.72;;;6.60;99.90;;;;;;6665084;89;20182;-76
2021/10/13 02:11:33;;;;;;;10.00;3.95;;;6.80;99.90;;;;;;6682041;88;20190;-76
2021/10/13 02:21:38;;;;;;;11.32;4.07;;;6.70;99.90;;;;;;6666971;89;20191;-76
2021/10/13 02:31:39;;;;;;;10.03;3.97;;;6.80;99.90;;;;;;6667158;88;20208;-76
2021/10/13 02:41:40;;;;;;;15.25;4.55;;;6.70;99.90;;;;;;6679584;88;20244;-77
2021/10/13 02:51:57;;;;;;;10.85;4.03;;;6.70;99.90;;;;;;6666072;89;20244;-76
2021/10/13 03:02:02;;;;;;;13.32;3.83;;;6.90;99.90;;;;;;6680190;88;20667;-77
2021/10/13 03:12:05;;;;;;;12.00;3.62;;;6.90;99.90;;;;;;6667013;89;20350;-76
2021/10/13 03:22:07;;;;;;;9.30;3.40;;;7.10;99.90;;;;;;6666528;89;20322;-76
2021/10/13 03:32:08;;;;;;;13.52;4.18;;;7.20;99.90;;;;;;6666953;88;20186;-78
2021/10/13 03:42:09;;;;;;;11.82;3.70;;;7.10;99.90;;;;;;6671357;89;20188;-77
2021/10/13 03:52:09;;;;;;;9.10;3.70;;;7.10;99.90;;;;;;6668504;89;20195;-76
2021/10/13 04:02:10;;;;;;;10.98;3.80;;;7.20;99.90;;;;;;6665668;89;20615;-77
2021/10/13 04:12:10;;;;;;;10.30;3.83;;;7.30;99.90;;;;;;6667072;88;20687;-76
2021/10/13 04:22:11;;;;;;;10.82;3.87;;;7.30;99.90;;;;;;6680797;88;20212;-76
2021/10/13 04:32:11;;;;;;;8.82;3.75;;;7.40;99.90;;;;;;6690591;88;20229;-75
2021/10/13 04:42:12;;;;;;;12.00;3.65;;;7.40;99.90;;;;;;6683865;89;20194;-76
2021/10/13 04:52:12;;;;;;;10.35;4.10;;;7.40;99.90;;;;;;6686448;89;20190;-78
2021/10/13 05:02:13;;;;;;;11.15;3.85;;;7.50;99.90;;;;;;6682639;89;20327;-76
2021/10/13 05:12:14;;;;;;;11.07;3.65;;;7.50;99.90;;;;;;6672904;88;20746;-75
2021/10/13 05:22:14;;;;;;;11.50;3.83;;;7.60;99.90;;;;;;6671277;89;20317;-77
2021/10/13 05:32:15;;;;;;;11.77;4.32;;;7.60;99.90;;;;;;6680611;88;21237;-76
2021/10/13 05:42:15;;;;;;;12.32;4.22;;;7.60;99.90;;;;;;6669682;89;20368;-76
2021/10/13 05:52:17;;;;;;;9.73;4.43;;;7.60;99.90;;;;;;6670753;89;20717;-74
2021/10/13 06:02:17;;;;;;;9.30;4.22;;;7.80;99.90;;;;;;6681747;89;20212;-76
2021/10/13 06:12:18;;;;;;;11.52;4.20;;;7.70;99.90;;;;;;6682970;89;20182;-78
2021/10/13 06:22:18;;;;;;;10.95;4.93;;;8.00;99.90;;;;;;6683120;88;20221;-79
2021/10/13 06:32:19;;;;;;;12.70;4.82;;;8.00;99.90;;;;;;6666122;88;20265;-75
2021/10/13 06:42:19;;;;;;;11.50;4.85;;;8.10;99.90;;;;;;6667605;88;20719;-76
2021/10/13 06:52:20;;;;;;;13.13;4.90;;;8.10;99.90;;;;;;6676121;89;20341;-77
2021/10/13 07:02:20;;;;;;;9.57;4.90;;;8.30;99.90;;;;;;6668992;89;20183;-77
2021/10/13 07:12:21;;;;;;;11.70;4.93;;;8.30;99.90;;;;;;6668873;89;20307;-77
2021/10/13 07:22:22;;;;;;;17.58;5.18;;;8.50;99.90;;;;;;6697257;88;20248;-77
2021/10/13 07:32:25;;;;;;;15.02;5.15;;;8.70;99.90;;;;;;6684714;89;20278;-76
2021/10/13 07:42:25;;;;;;;16.73;5.53;;;8.90;99.90;;;;;;6684558;88;20777;-77
2021/10/13 07:52:26;;;;;;;10.48;5.47;;;9.00;99.90;;;;;;6684417;89;20245;-78
2021/10/13 08:02:26;;;;;;;13.85;6.43;;;8.90;99.90;;;;;;6685384;88;20361;-77
2021/10/13 08:12:27;;;;;;;11.35;5.40;;;9.50;99.90;;;;;;6686020;89;20228;-76
2021/10/13 08:22:27;;;;;;;13.40;5.57;;;10.00;99.90;;;;;;6671755;89;20225;-77
2021/10/13 08:32:28;;;;;;;17.55;5.45;;;9.90;99.90;;;;;;6681850;89;20228;-77
2021/10/13 08:42:28;;;;;;;13.27;5.55;;;9.80;99.90;;;;;;6698281;88;20203;-77
2021/10/13 08:52:30;;;;;;;15.00;4.97;;;9.90;99.90;;;;;;6696397;88;20236;-77
2021/10/13 09:02:42;;;;;;;10.98;4.97;;;10.50;99.90;;;;;;6682911;88;20583;-77
2021/10/13 09:12:44;;;;;;;12.18;5.43;;;10.70;99.90;;;;;;6698671;88;20607;-77
2021/10/13 09:23:17;;;;;;;12.32;4.85;;;10.70;99.90;;;;;;6689886;88;20232;-77
2021/10/13 09:33:20;;;;;;;14.60;5.87;;;11.30;99.90;;;;;;6681412;88;20301;-78
2021/10/13 09:43:37;;;;;;;10.50;5.90;;;11.40;99.90;;;;;;6687790;88;20250;-78
2021/10/13 09:53:37;;;;;;;12.07;6.22;;;11.60;99.90;;;;;;6677152;88;20201;-76
2021/10/13 10:03:43;;;;;;;13.65;6.40;;;11.80;99.90;;;;;;6688362;88;20195;-77
2021/10/13 10:13:44;;;;;;;11.02;6.35;;;12.70;99.90;;;;;;6664276;88;20217;-77
2021/10/13 10:23:46;;;;;;;12.68;6.10;;;13.60;99.90;;;;;;6663862;88;20188;-78
2021/10/13 10:33:50;;;;;;;12.52;7.20;;;14.10;99.90;;;;;;6665672;88;20258;-78
2021/10/13 10:43:50;;;;;;;10.40;5.97;;;14.40;99.90;;;;;;6665697;89;20696;-77
2021/10/13 10:53:51;;;;;;;10.55;5.30;;;16.40;99.90;;;;;;6666467;89;20203;-78
2021/10/13 11:03:52;;;;;;;8.55;5.28;;;16.10;99.90;;;;;;6666753;89;20319;-78
2021/10/13 11:14:16;;;;;;;11.20;5.40;;;16.00;99.90;;;;;;6667786;89;20222;-79
2021/10/13 11:24:17;;;;;;;11.40;5.65;;;16.10;99.90;;;;;;6667468;88;20203;-79
2021/10/13 11:34:19;;;;;;;13.07;4.60;;;16.90;99.90;;;;;;6665494;89;20784;-78
2021/10/13 11:44:23;;;;;;;12.00;7.12;;;16.90;99.90;;;;;;6666850;89;20195;-78
2021/10/13 11:54:25;;;;;;;16.60;8.47;;;15.40;99.90;;;;;;6666916;88;20192;-78
2021/10/13 12:04:26;;;;;;;12.48;7.28;;;15.20;99.90;;;;;;6666165;88;20249;-78
2021/10/13 12:14:35;;;;;;;10.40;6.40;;;15.00;99.90;;;;;;6667234;89;20266;-78
2021/10/13 12:24:35;;;;;;;13.70;5.93;;;15.50;99.90;;;;;;6666704;88;20717;-77
2021/10/13 12:34:36;;;;;;;10.70;4.82;;;16.90;99.90;;;;;;6670413;89;20288;-77
2021/10/13 12:44:37;;;;;;;9.45;3.20;;;18.00;99.90;;;;;;6666277;89;20687;-80
2021/10/13 12:54:45;;;;;;;6.50;1.65;;;17.00;99.90;;;;;;6680871;88;20251;-77
2021/10/13 13:04:46;;;;;;;4.50;1.40;;;12.90;99.90;;;;;;6674004;88;20239;-78
2021/10/13 13:14:46;;;;;;;3.25;1.27;;;12.60;99.90;;;;;;6681155;88;20662;-78
2021/10/13 13:24:46;;;;;;;3.95;1.30;;;12.70;99.90;;;;;;6666991;89;20679;-78
2021/10/13 13:34:47;;;;;;;4.50;1.27;;;13.20;99.90;;;;;;6667107;88;20271;-79
2021/10/13 13:44:47;;;;;;;5.95;1.50;;;14.40;99.90;;;;;;6666018;89;20276;-80
2021/10/13 13:54:48;;;;;;;9.25;1.42;;;14.70;99.90;;;;;;6666358;89;20202;-78
2021/10/13 14:04:48;;;;;;;8.55;1.23;;;14.70;99.90;;;;;;6668472;88;20216;-78
2021/10/13 14:14:49;;;;;;;3.80;1.45;;;15.10;99.90;;;;;;6666501;88;20229;-77
2021/10/13 14:24:50;;;;;;;6.87;1.50;;;14.30;99.90;;;;;;6667180;89;20622;-78
2021/10/13 14:34:52;;;;;;;7.18;1.98;;;13.80;99.90;;;;;;6667523;88;20209;-77
2021/10/13 14:44:56;;;;;;;4.47;1.50;;;13.70;99.90;;;;;;6666671;89;20232;-79
2021/10/13 14:54:57;;;;;;;6.93;1.30;;;13.50;99.90;;;;;;6666243;88;20191;-76
2021/10/13 15:04:58;;;;;;;5.68;1.50;;;13.40;99.90;;;;;;6665894;89;20239;-78
2021/10/13 15:14:58;;;;;;;5.55;1.20;;;13.50;99.90;;;;;;6666093;88;20205;-77
2021/10/13 15:24:59;;;;;;;7.07;1.30;;;13.10;99.90;;;;;;6665191;89;20199;-78
2021/10/13 15:35:00;;;;;;;2.83;0.90;;;13.10;99.90;;;;;;6665428;89;20311;-78
2021/10/13 15:45:00;;;;;;;5.62;1.48;;;13.20;99.90;;;;;;6679228;88;20176;-79
2021/10/13 15:55:03;;;;;;;3.80;1.50;;;13.00;99.90;;;;;;6668843;89;20195;-77
2021/10/13 16:05:05;;;;;;;7.30;1.40;;;12.90;99.90;;;;;;6667768;88;20192;-77
2021/10/13 16:15:07;;;;;;;7.28;2.03;;;12.80;99.90;;;;;;6672461;89;20248;-75
2021/10/13 16:25:08;;;;;;;4.72;1.80;;;12.80;99.90;;;;;;6666545;88;20289;-76
2021/10/13 16:35:09;;;;;;;5.97;2.00;;;12.60;99.90;;;;;;6667187;88;20199;-78
2021/10/13 16:45:21;;;;;;;7.78;2.10;;;12.40;99.90;;;;;;6793863;86;20272;-79
2021/10/13 16:55:23;;;;;;;4.87;2.03;;;12.00;99.90;;;;;;6785505;87;20294;-78
2021/10/13 17:05:23;;;;;;;4.30;1.90;;;11.90;99.90;;;;;;6785273;87;20487;-78
2021/10/13 17:15:24;;;;;;;7.75;2.25;;;11.90;99.90;;;;;;6780602;87;20339;-79
2021/10/13 17:25:24;;;;;;;7.25;2.35;;;11.70;99.90;;;;;;6784749;87;20198;-79
2021/10/13 17:35:25;;;;;;;7.80;2.10;;;11.50;99.90;;;;;;6785610;87;20201;-76
2021/10/13 17:45:30;;;;;;;5.95;2.15;;;11.60;99.90;;;;;;6789048;87;20690;-75
2021/10/13 17:55:31;;;;;;;7.90;2.07;;;11.30;99.90;;;;;;6774981;87;20586;-81
2021/10/13 18:05:31;;;;;;;5.70;1.90;;;11.20;99.90;;;;;;6771782;87;20254;-79
2021/10/13 18:15:32;;;;;;;5.83;1.97;;;11.30;99.90;;;;;;6771538;87;20186;-78
2021/10/13 18:25:33;;;;;;;8.05;2.00;;;11.10;99.90;;;;;;6771696;87;20529;-79
2021/10/13 18:35:33;;;;;;;8.30;2.35;;;11.10;99.90;;;;;;6771724;87;20268;-78
2021/10/13 18:45:34;;;;;;;10.15;2.53;;;10.90;99.90;;;;;;6770930;76;20241;-75
2021/10/13 18:55:35;;;;;;;5.45;2.75;;;10.90;99.90;;;;;;6747851;88;20204;-75
2021/10/13 19:05:35;;;;;;;5.90;2.40;;;10.90;99.90;;;;;;6748229;88;20292;-75
2021/10/13 19:15:36;;;;;;;8.85;2.67;;;11.00;99.90;;;;;;6747867;88;20295;-76
2021/10/13 19:25:36;;;;;;;9.27;2.65;;;10.90;99.90;;;;;;6747771;88;20256;-73
2021/10/13 19:35:37;;;;;;;12.00;2.80;;;10.70;99.90;;;;;;6748114;88;20184;-75
2021/10/13 19:45:38;;;;;;;7.60;2.60;;;10.60;99.90;;;;;;6747652;88;20359;-73
2021/10/13 19:55:38;;;;;;;6.82;2.87;;;10.70;99.90;;;;;;6747160;88;20609;-74
2021/10/13 20:05:39;;;;;;;7.35;3.30;;;10.80;99.90;;;;;;6747020;88;20325;-74
2021/10/13 20:15:39;;;;;;;6.80;2.92;;;10.80;99.90;;;;;;6746988;88;20237;-73
2021/10/13 20:25:40;;;;;;;10.63;3.70;;;10.80;99.90;;;;;;6747295;88;20250;-75
2021/10/13 20:35:40;;;;;;;9.02;3.65;;;10.80;99.90;;;;;;6747400;88;20215;-74
2021/10/13 20:45:41;;;;;;;10.48;3.70;;;11.00;99.90;;;;;;6746788;88;20199;-74
2021/10/13 20:55:41;;;;;;;7.05;3.42;;;11.30;99.90;;;;;;6747351;88;20188;-72
2021/10/13 21:05:42;;;;;;;8.82;3.83;;;11.30;99.90;;;;;;6747418;88;20192;-73
2021/10/13 21:15:43;;;;;;;9.77;3.53;;;11.10;99.90;;;;;;6743584;88;20250;-74
2021/10/13 21:25:44;;;;;;;9.68;3.80;;;11.20;99.90;;;;;;6747152;88;20195;-74
2021/10/13 21:35:44;;;;;;;7.15;4.30;;;11.10;99.90;;;;;;6749212;88;20218;-73
2021/10/13 21:45:45;;;;;;;10.73;4.00;;;11.10;99.90;;;;;;6749106;88;20199;-73
2021/10/13 21:55:46;;;;;;;8.75;3.90;;;11.00;99.90;;;;;;6748972;88;20231;-74
2021/10/13 22:05:46;;;;;;;9.63;5.28;;;11.10;99.90;;;;;;6749291;88;20302;-73
2021/10/13 22:15:47;;;;;;;11.23;5.32;;;11.10;99.90;;;;;;6748749;88;20183;-73
2021/10/13 22:25:47;;;;;;;15.00;5.90;;;11.10;99.90;;;;;;6748975;88;20210;-73
2021/10/13 22:35:50;;;;;;;11.45;6.15;;;10.90;99.90;;;;;;6748650;88;20215;-73
2021/10/13 22:45:50;;;;;;;11.32;6.30;;;11.00;99.90;;;;;;6748433;88;20247;-73
2021/10/13 22:55:51;;;;;;;11.27;6.67;;;11.00;99.90;;;;;;6748287;88;20209;-73
2021/10/13 23:05:52;;;;;;;13.52;6.90;;;11.00;99.90;;;;;;6748645;87;20662;-73
2021/10/13 23:15:52;;;;;;;13.80;6.47;;;10.90;99.90;;;;;;6747882;88;20742;-73
2021/10/13 23:25:53;;;;;;;13.38;6.90;;;11.10;99.90;;;;;;6747910;88;20200;-73
2021/10/13 23:35:53;;;;;;;13.02;7.22;;;11.10;99.90;;;;;;6748328;88;20176;-73
2021/10/13 23:45:54;;;;;;;13.05;7.37;;;11.00;99.90;;;;;;6747722;87;20331;-74
2021/10/13 23:55:54;;;;;;;14.48;7.40;;;11.00;99.90;;;;;;6747469;88;20308;-74
